General Aviation Weather

Text Reports

Enter one or more of the following location identifiers separated by a space:

Zip Code, Four-Character ICAO or Three-Character IATA airport codes.

METAR - Aviation Routine Weather Report
KESN - Easton, Maryland
Updated at 5:11 AM GMT on April 21, 2015 (1:11 AM EDT):
METAR KESN 210511Z AUTO 22009KT 10SM CLR 21/17 A2961 RMK AO2 T02080173
TAF - Terminal Area Forecast
KESN - Easton, Maryland
Updated at 5:11 AM GMT on April 21, 2015 (1:11 AM EDT):
No TAF is currently available for this location.
Decoded:
No decoded TAF is available.
PIREP - Pilot Weather Report
KESN - Easton, Maryland
Updated at 5:11 AM GMT on April 21, 2015 (1:11 AM EDT):
No PIREP is currently available for this location.
AIRMET - Airmens Meteorological Information
KESN - Easton, Maryland
Updated at 5:11 AM GMT on April 21, 2015 (1:11 AM EDT):
No AIRMET is currently available for this location.
SIGMET - Significant Meteorological Information
KESN - Easton, Maryland
Updated at 5:11 AM GMT on April 21, 2015 (1:11 AM EDT):
No SIGMET is currently available for this location.
NOTAM - Notice to Airmen
KESN - Easton, Maryland
Updated at 5:11 AM GMT on April 21, 2015 (1:11 AM EDT):
No NOTAM is currently available for this location.
Forecast Area
KESN - Easton, Maryland
Updated at 5:11 AM GMT on April 21, 2015 (1:11 AM EDT):
No NOTAM is currently available for this location.
Aviation Weather Maps